createdAt,value
2022-10-12T00:01:51.316Z,99944.50
2022-10-12T00:04:18.196Z,99939.00
2022-10-12T00:06:44.888Z,99947.88
2022-10-12T00:09:11.755Z,99944.97
2022-10-12T00:11:41.280Z,99950.84
2022-10-12T00:14:08.504Z,99943.97
2022-10-12T00:16:35.245Z,99946.22
2022-10-12T00:19:02.157Z,99945.38
2022-10-12T00:21:30.588Z,99953.44
2022-10-12T00:23:59.810Z,99939.16
2022-10-12T00:26:28.020Z,99950.25
2022-10-12T00:28:57.562Z,99947.06
2022-10-12T00:31:24.930Z,99949.91
2022-10-12T00:33:52.005Z,99937.69
2022-10-12T00:36:27.174Z,99942.38
2022-10-12T00:38:55.690Z,99951.59
2022-10-12T00:41:25.553Z,99949.09
2022-10-12T00:43:57.963Z,99953.97
2022-10-12T00:46:37.682Z,99948.16
2022-10-12T00:49:24.827Z,99951.53
2022-10-12T00:51:54.551Z,99946.06
2022-10-12T00:54:25.341Z,99947.81
2022-10-12T00:56:54.043Z,99956.22
2022-10-12T00:59:26.192Z,99963.72
2022-10-12T01:01:53.409Z,99949.00
2022-10-12T01:04:21.911Z,99952.53
2022-10-12T01:06:48.695Z,99952.75
2022-10-12T01:09:15.594Z,99959.97
2022-10-12T01:11:42.542Z,99958.88
2022-10-12T01:14:09.713Z,99960.91
2022-10-12T01:16:44.592Z,99962.47
2022-10-12T01:19:14.644Z,99961.22
2022-10-12T01:21:46.598Z,99970.09
2022-10-12T01:24:35.968Z,99967.50
2022-10-12T01:27:27.282Z,99970.22
2022-10-12T01:30:06.529Z,99964.91
2022-10-12T01:32:53.517Z,99967.34
2022-10-12T01:35:38.019Z,99962.94
2022-10-12T01:38:17.629Z,99966.16
2022-10-12T01:41:01.839Z,99961.63
2022-10-12T01:43:37.963Z,99959.34
2022-10-12T01:46:45.671Z,99963.94
2022-10-12T01:49:14.130Z,99955.34
2022-10-12T01:52:10.105Z,99943.56
2022-10-12T01:55:01.009Z,99946.69
2022-10-12T01:57:54.910Z,99940.34
2022-10-12T02:00:21.822Z,99941.56
2022-10-12T02:03:15.394Z,99937.94
2022-10-12T02:06:28.592Z,99948.81
2022-10-12T02:09:14.367Z,99941.28
2022-10-12T02:11:43.238Z,99944.47
2022-10-12T02:14:19.805Z,99940.94
2022-10-12T02:16:51.435Z,99945.34
2022-10-12T02:19:23.812Z,99948.16
2022-10-12T02:21:51.832Z,99947.53
2022-10-12T02:24:19.565Z,99942.59
2022-10-12T02:26:48.400Z,99946.94
2022-10-12T02:29:20.232Z,99938.47
2022-10-12T02:32:29.689Z,99936.19
2022-10-12T02:35:16.663Z,99934.44
2022-10-12T02:38:18.472Z,99932.66
2022-10-12T02:40:53.045Z,99936.88
2022-10-12T02:43:28.823Z,99932.28
2022-10-12T02:45:57.804Z,99930.66
2022-10-12T02:48:25.107Z,99923.72
2022-10-12T02:50:56.839Z,99928.41
2022-10-12T02:53:25.725Z,99916.34
2022-10-12T02:55:56.353Z,99916.59
2022-10-12T02:58:23.232Z,99918.16
2022-10-12T03:00:50.016Z,99913.75
2022-10-12T03:03:16.801Z,99908.63
2022-10-12T03:05:43.646Z,99915.50
2022-10-12T03:08:10.599Z,99915.22
2022-10-12T03:10:37.815Z,99920.25
2022-10-12T03:13:04.789Z,99911.00
2022-10-12T03:15:32.068Z,99910.16
2022-10-12T03:17:59.035Z,99904.59
2022-10-12T03:20:25.975Z,99920.41
2022-10-12T03:22:52.898Z,99913.53
2022-10-12T03:25:20.309Z,99912.94
2022-10-12T03:27:47.196Z,99911.41
2022-10-12T03:30:14.975Z,99919.25
2022-10-12T03:32:41.639Z,99912.53
2022-10-12T03:35:09.971Z,99923.03
2022-10-12T03:37:37.952Z,99916.22
2022-10-12T03:40:06.101Z,99903.44
2022-10-12T03:42:33.166Z,99912.69
2022-10-12T03:45:00.013Z,99908.06
2022-10-12T03:47:26.899Z,99912.47
2022-10-12T03:49:54.569Z,99907.13
2022-10-12T03:52:21.351Z,99902.09
2022-10-12T03:54:48.121Z,99907.03
2022-10-12T03:57:14.902Z,99902.09
2022-10-12T03:59:41.630Z,99900.34
2022-10-12T04:02:10.231Z,99903.91
2022-10-12T04:04:40.096Z,99909.41
2022-10-12T04:07:07.224Z,99908.94
2022-10-12T04:09:34.034Z,99909.56
2022-10-12T04:12:00.934Z,99907.34
2022-10-12T04:14:28.072Z,99911.94
2022-10-12T04:16:55.198Z,99912.31
2022-10-12T04:19:22.561Z,99907.19
2022-10-12T04:21:49.469Z,99908.44
2022-10-12T04:24:16.214Z,99912.84
2022-10-12T04:26:43.171Z,99905.66
2022-10-12T04:29:13.184Z,99904.84
2022-10-12T04:31:41.019Z,99911.53
2022-10-12T04:34:09.166Z,99915.06
2022-10-12T04:36:36.053Z,99903.00
2022-10-12T04:39:03.101Z,99907.13
2022-10-12T04:41:30.266Z,99913.38
2022-10-12T04:43:57.777Z,99910.03
2022-10-12T04:46:24.664Z,99911.72
2022-10-12T04:48:51.715Z,99914.25
2022-10-12T04:51:19.304Z,99912.69
2022-10-12T04:53:46.307Z,99918.72
2022-10-12T04:56:13.034Z,99913.53
2022-10-12T04:58:39.934Z,99906.97
2022-10-12T05:01:06.946Z,99912.06
2022-10-12T05:03:36.086Z,99913.94
2022-10-12T05:06:07.029Z,99914.00
2022-10-12T05:08:34.020Z,99914.06
2022-10-12T05:11:00.869Z,99907.75
2022-10-12T05:13:28.892Z,99909.56
2022-10-12T05:15:55.954Z,99908.50
2022-10-12T05:18:22.963Z,99901.41
2022-10-12T05:20:52.227Z,99914.38
2022-10-12T05:23:22.970Z,99913.16
2022-10-12T05:25:49.905Z,99896.44
2022-10-12T05:28:17.050Z,99900.31
2022-10-12T05:30:43.793Z,99902.38
2022-10-12T05:33:10.982Z,99896.72
2022-10-12T05:35:38.253Z,99888.50
2022-10-12T05:38:05.077Z,99896.28
2022-10-12T05:40:31.768Z,99891.69
2022-10-12T05:42:58.617Z,99899.63
2022-10-12T05:45:25.363Z,99903.63
2022-10-12T05:47:52.119Z,99907.41
2022-10-12T05:50:18.944Z,99899.63
2022-10-12T05:52:45.794Z,99903.81
2022-10-12T05:55:13.177Z,99906.09
2022-10-12T05:57:40.500Z,99909.31
2022-10-12T06:00:08.939Z,99911.53
2022-10-12T06:02:36.273Z,99910.16
2022-10-12T06:05:03.955Z,99905.38
2022-10-12T06:07:30.981Z,99903.13
2022-10-12T06:09:58.376Z,99904.06
2022-10-12T06:12:25.126Z,99910.63
2022-10-12T06:14:52.413Z,99901.84
2022-10-12T06:17:19.531Z,99905.75
2022-10-12T06:19:46.307Z,99904.44
2022-10-12T06:22:13.049Z,99899.56
2022-10-12T06:24:40.026Z,99897.66
2022-10-12T06:27:06.952Z,99895.34
2022-10-12T06:29:34.116Z,99903.00
2022-10-12T06:32:01.123Z,99899.13
2022-10-12T06:34:27.930Z,99901.22
2022-10-12T06:36:58.235Z,99899.56
2022-10-12T06:39:28.325Z,99911.97
2022-10-12T06:41:54.974Z,99905.28
2022-10-12T06:44:25.291Z,99911.03
2022-10-12T06:46:53.121Z,99905.66
2022-10-12T06:49:21.302Z,99902.06
2022-10-12T06:51:48.084Z,99895.22
2022-10-12T06:54:14.849Z,99909.16
2022-10-12T06:56:41.738Z,99900.69
2022-10-12T06:59:08.715Z,99906.34
2022-10-12T07:01:35.443Z,99906.88
2022-10-12T07:04:02.342Z,99906.59
2022-10-12T07:06:29.110Z,99914.22
2022-10-12T07:08:55.972Z,99911.84
2022-10-12T07:11:23.063Z,99913.25
2022-10-12T07:13:49.945Z,99907.19
2022-10-12T07:16:16.700Z,99911.25
2022-10-12T07:18:44.554Z,99913.22
2022-10-12T07:21:12.330Z,99910.78
2022-10-12T07:23:43.650Z,99907.69
2022-10-12T07:26:11.851Z,99902.97
2022-10-12T07:28:38.696Z,99908.47
2022-10-12T07:31:07.892Z,99913.38
2022-10-12T07:33:35.941Z,99906.53
2022-10-12T07:36:13.889Z,99914.25
2022-10-12T07:38:45.292Z,99916.59
2022-10-12T07:41:12.746Z,99910.41
2022-10-12T07:43:39.630Z,99915.13
2022-10-12T07:46:06.511Z,99912.22
2022-10-12T07:48:34.824Z,99906.28
2022-10-12T07:51:06.406Z,99906.41
2022-10-12T07:53:38.385Z,99901.41
2022-10-12T07:56:07.675Z,99902.63
2022-10-12T07:58:34.398Z,99901.72
2022-10-12T08:01:08.667Z,99905.94
2022-10-12T08:03:35.557Z,99900.53
2022-10-12T08:06:13.653Z,99899.81
2022-10-12T08:08:40.835Z,99911.28
2022-10-12T08:11:08.235Z,99902.88
2022-10-12T08:13:35.538Z,99909.06
2022-10-12T08:16:03.876Z,99906.75
2022-10-12T08:18:31.113Z,99912.06
2022-10-12T08:20:58.366Z,99901.06
2022-10-12T08:23:25.934Z,99900.84
2022-10-12T08:25:54.343Z,99903.25
2022-10-12T08:28:21.786Z,99904.59
2022-10-12T08:30:49.120Z,99903.84
2022-10-12T08:33:16.450Z,99908.28
2022-10-12T08:35:44.324Z,99906.50
2022-10-12T08:38:12.540Z,99903.84
2022-10-12T08:41:01.413Z,99903.97
2022-10-12T08:43:43.965Z,99902.53
2022-10-12T08:46:11.218Z,99895.19
2022-10-12T08:48:59.596Z,99902.34
2022-10-12T08:51:28.706Z,99899.75
2022-10-12T08:54:11.374Z,99900.59
2022-10-12T08:56:40.437Z,99897.91
2022-10-12T08:59:15.291Z,99892.50
2022-10-12T09:02:25.937Z,99899.22
2022-10-12T09:05:06.971Z,99895.09
2022-10-12T09:07:50.135Z,99888.44
2022-10-12T09:10:54.179Z,99888.88
2022-10-12T09:13:51.151Z,99891.53
2022-10-12T09:16:30.184Z,99883.88
2022-10-12T09:18:59.244Z,99885.53
2022-10-12T09:21:28.174Z,99888.84
2022-10-12T09:23:58.542Z,99882.81
2022-10-12T09:26:39.514Z,99880.78
2022-10-12T09:29:23.394Z,99883.91
2022-10-12T09:32:16.900Z,99871.66
2022-10-12T09:34:44.479Z,99874.34
2022-10-12T09:37:25.758Z,99873.34
2022-10-12T09:39:52.896Z,99870.16
2022-10-12T09:42:20.121Z,99874.75
2022-10-12T09:44:49.819Z,99881.97
2022-10-12T09:47:29.206Z,99881.72
2022-10-12T09:50:04.525Z,99876.25
2022-10-12T09:52:41.870Z,99872.94
2022-10-12T09:55:37.978Z,99858.59
2022-10-12T09:58:04.910Z,99859.69
2022-10-12T10:00:35.391Z,99848.34
2022-10-12T10:03:02.725Z,99851.06
2022-10-12T10:05:35.259Z,99848.09
2022-10-12T10:08:39.606Z,99851.00
2022-10-12T10:11:06.453Z,99842.88
2022-10-12T10:13:34.013Z,99841.56
2022-10-12T10:16:09.411Z,99838.88
2022-10-12T10:18:38.482Z,99834.72
2022-10-12T10:21:08.877Z,99832.69
2022-10-12T10:23:57.996Z,99837.75
2022-10-12T10:26:26.352Z,99827.97
2022-10-12T10:29:24.608Z,99834.78
2022-10-12T10:32:29.136Z,99828.88
2022-10-12T10:35:32.593Z,99822.72
2022-10-12T10:37:59.780Z,99823.91
2022-10-12T10:40:30.137Z,99819.31
2022-10-12T10:43:06.229Z,99822.91
2022-10-12T10:45:36.132Z,99814.47
2022-10-12T10:48:10.719Z,99816.28
2022-10-12T10:50:39.560Z,99816.78
2022-10-12T10:53:14.802Z,99813.19
2022-10-12T10:55:46.166Z,99814.59
2022-10-12T10:58:25.386Z,99809.78
2022-10-12T11:00:53.954Z,99805.50
2022-10-12T11:03:25.657Z,99807.44
2022-10-12T11:05:57.335Z,99808.28
2022-10-12T11:08:29.539Z,99798.81
2022-10-12T11:11:02.932Z,99805.06
2022-10-12T11:13:45.907Z,99795.56
2022-10-12T11:16:36.499Z,99802.09
2022-10-12T11:19:15.589Z,99798.88
2022-10-12T11:21:53.861Z,99787.88
2022-10-12T11:24:35.797Z,99789.16
2022-10-12T11:27:26.174Z,99792.34
2022-10-12T11:30:08.317Z,99783.81
2022-10-12T11:32:38.919Z,99777.91
2022-10-12T11:35:07.926Z,99784.19
2022-10-12T11:37:45.831Z,99778.50
2022-10-12T11:40:55.487Z,99777.00
2022-10-12T11:43:22.926Z,99781.41
2022-10-12T11:45:54.201Z,99767.03
2022-10-12T11:48:27.343Z,99761.91
2022-10-12T11:51:02.867Z,99764.50
2022-10-12T11:54:01.739Z,99759.59
2022-10-12T11:56:43.091Z,99756.19
2022-10-12T11:59:41.149Z,99753.22
2022-10-12T12:02:44.550Z,99745.81
2022-10-12T12:05:16.528Z,99747.81
2022-10-12T12:07:52.177Z,99746.63
2022-10-12T12:10:43.510Z,99745.06
2022-10-12T12:13:28.908Z,99745.56
2022-10-12T12:16:22.617Z,99742.47
2022-10-12T12:19:18.466Z,99738.25
2022-10-12T12:22:36.351Z,99738.47
2022-10-12T12:25:28.989Z,99732.91
2022-10-12T12:28:06.521Z,99728.22
2022-10-12T12:30:37.535Z,99729.47
2022-10-12T12:33:28.486Z,99722.69
2022-10-12T12:36:04.008Z,99721.69
2022-10-12T12:38:36.262Z,99725.53
2022-10-12T12:41:17.826Z,99717.06
2022-10-12T12:43:56.945Z,99717.06
2022-10-12T12:46:26.921Z,99702.50
2022-10-12T12:48:58.228Z,99713.47
2022-10-12T12:51:38.562Z,99703.88
2022-10-12T12:54:17.232Z,99702.38
2022-10-12T12:57:15.423Z,99696.59
2022-10-12T13:00:11.175Z,99700.41
2022-10-12T13:03:16.789Z,99694.28
2022-10-12T13:06:01.046Z,99689.31
2022-10-12T13:09:01.301Z,99683.03
2022-10-12T13:11:52.779Z,99687.00
2022-10-12T13:14:38.219Z,99687.16
2022-10-12T13:17:33.368Z,99682.53
2022-10-12T13:20:06.888Z,99680.22
2022-10-12T13:22:35.559Z,99674.41
2022-10-12T13:25:06.470Z,99673.06
2022-10-12T13:27:42.518Z,99668.38
2022-10-12T13:30:52.842Z,99669.22
2022-10-12T13:33:29.958Z,99674.06
2022-10-12T13:36:04.310Z,99674.53
2022-10-12T13:38:31.909Z,99672.38
2022-10-12T13:41:17.119Z,99669.56
2022-10-12T13:43:56.772Z,99663.28
2022-10-12T13:46:46.407Z,99670.75
2022-10-12T13:49:29.026Z,99668.06
2022-10-12T13:52:16.648Z,99662.47
2022-10-12T13:54:47.838Z,99663.28
2022-10-12T13:57:50.466Z,99661.47
2022-10-12T14:00:28.588Z,99663.44
2022-10-12T14:03:04.225Z,99660.78
2022-10-12T14:05:33.419Z,99652.81
2022-10-12T14:08:04.010Z,99656.81
2022-10-12T14:10:33.844Z,99655.50
2022-10-12T14:13:02.508Z,99649.84
2022-10-12T14:15:34.598Z,99647.69
2022-10-12T14:18:01.555Z,99646.38
2022-10-12T14:20:35.359Z,99649.19
2022-10-12T14:23:04.793Z,99646.03
2022-10-12T14:25:32.692Z,99638.06
2022-10-12T14:28:01.873Z,99638.56
2022-10-12T14:30:42.912Z,99642.22
2022-10-12T14:33:30.557Z,99641.91
2022-10-12T14:36:25.294Z,99642.88
2022-10-12T14:38:53.104Z,99636.41
2022-10-12T14:41:38.723Z,99625.81
2022-10-12T14:44:18.341Z,99623.47
2022-10-12T14:46:57.258Z,99628.28
2022-10-12T14:49:26.626Z,99622.97
2022-10-12T14:51:54.964Z,99620.66
2022-10-12T14:54:22.483Z,99617.69
2022-10-12T14:56:50.982Z,99618.00
2022-10-12T14:59:18.055Z,99614.69
2022-10-12T15:01:47.573Z,99619.84
2022-10-12T15:04:18.637Z,99622.16
2022-10-12T15:06:50.549Z,99621.81
2022-10-12T15:09:18.772Z,99622.50
2022-10-12T15:11:45.584Z,99611.03
2022-10-12T15:14:12.788Z,99610.06
2022-10-12T15:20:17.380Z,99599.78
2022-10-12T15:22:45.106Z,99600.78
2022-10-12T15:25:24.476Z,99593.13
2022-10-12T15:27:51.651Z,99597.78
2022-10-12T15:30:18.521Z,99591.50
2022-10-12T15:32:46.036Z,99586.19
2022-10-12T15:35:19.707Z,99592.47
2022-10-12T15:37:47.124Z,99583.88
2022-10-12T15:40:14.226Z,99580.38
2022-10-12T15:42:43.028Z,99577.22
2022-10-12T15:45:27.413Z,99578.56
2022-10-12T15:47:54.983Z,99579.88
2022-10-12T15:50:24.802Z,99581.69
2022-10-12T15:52:51.813Z,99580.84
2022-10-12T15:55:21.691Z,99564.22
2022-10-12T15:57:48.991Z,99572.19
2022-10-12T16:00:17.529Z,99573.78
2022-10-12T16:02:44.612Z,99575.25
2022-10-12T16:05:27.057Z,99571.09
2022-10-12T16:07:54.955Z,99574.06
2022-10-12T16:10:27.687Z,99571.38
2022-10-12T16:12:55.317Z,99573.19
2022-10-12T16:15:25.268Z,99574.94
2022-10-12T16:17:52.402Z,99572.56
2022-10-12T16:20:19.428Z,99568.53
2022-10-12T16:22:47.014Z,99568.13
2022-10-12T16:25:17.171Z,99568.91
2022-10-12T16:27:45.301Z,99563.53
2022-10-12T16:30:12.876Z,99564.69
2022-10-12T16:32:39.608Z,99565.56
2022-10-12T16:35:07.478Z,99563.84
2022-10-12T16:37:35.074Z,99567.56
2022-10-12T16:40:03.867Z,99572.72
2022-10-12T16:42:30.925Z,99579.94
2022-10-12T16:44:58.379Z,99578.06
2022-10-12T16:47:25.745Z,99568.41
2022-10-12T16:49:54.321Z,99573.19
2022-10-12T16:52:25.023Z,99580.53
2022-10-12T16:54:55.493Z,99575.19
2022-10-12T16:57:23.650Z,99583.25
2022-10-12T16:59:52.594Z,99575.06
2022-10-12T17:02:19.911Z,99578.16
2022-10-12T17:04:47.080Z,99580.28
2022-10-12T17:07:14.602Z,99586.94
2022-10-12T17:09:41.249Z,99592.63
2022-10-12T17:12:08.292Z,99591.44
2022-10-12T17:14:35.196Z,99584.78
2022-10-12T17:17:01.901Z,99585.06
2022-10-12T17:19:32.082Z,99591.03
2022-10-12T17:22:01.113Z,99591.63
2022-10-12T17:24:31.181Z,99582.78
2022-10-12T17:26:59.107Z,99584.19
2022-10-12T17:29:27.682Z,99583.66
2022-10-12T17:31:55.333Z,99592.56
2022-10-12T17:34:25.021Z,99592.75
2022-10-12T17:36:53.776Z,99586.38
2022-10-12T17:39:21.465Z,99587.28
2022-10-12T17:41:48.706Z,99591.88
2022-10-12T17:44:15.957Z,99589.00
2022-10-12T17:46:45.710Z,99591.28
2022-10-12T17:49:15.135Z,99592.63
2022-10-12T17:51:42.321Z,99595.44
2022-10-12T17:54:13.294Z,99593.50
2022-10-12T17:56:40.229Z,99600.13
2022-10-12T17:59:07.177Z,99603.47
2022-10-12T18:01:37.072Z,99592.94
2022-10-12T18:04:05.081Z,99600.00
2022-10-12T18:06:33.322Z,99591.84
2022-10-12T18:09:05.159Z,99584.47
2022-10-12T18:11:32.892Z,99589.63
2022-10-12T18:14:00.045Z,99586.16
2022-10-12T18:16:30.221Z,99588.22
2022-10-12T18:18:59.142Z,99587.50
2022-10-12T18:21:28.414Z,99580.72
2022-10-12T18:23:55.998Z,99591.09
2022-10-12T18:26:23.262Z,99582.38
2022-10-12T18:28:54.040Z,99586.50
2022-10-12T18:31:26.151Z,99585.69
2022-10-12T18:33:53.978Z,99590.09
2022-10-12T18:36:20.904Z,99585.09
2022-10-12T18:38:48.112Z,99582.31
2022-10-12T18:41:17.240Z,99579.25
2022-10-12T18:43:44.410Z,99579.13
2022-10-12T18:46:14.552Z,99577.94
2022-10-12T18:48:41.578Z,99582.50
2022-10-12T18:51:15.743Z,99585.59
2022-10-12T18:53:42.522Z,99577.47
2022-10-12T18:56:10.760Z,99583.03
2022-10-12T18:58:42.165Z,99584.63
2022-10-12T19:01:20.961Z,99592.88
2022-10-12T19:03:49.360Z,99595.53
2022-10-12T19:06:19.453Z,99585.97
2022-10-12T19:08:48.287Z,99591.66
2022-10-12T19:11:17.708Z,99583.66
2022-10-12T19:13:51.139Z,99594.50
2022-10-12T19:16:18.186Z,99589.44
2022-10-12T19:18:45.316Z,99588.34
2022-10-12T19:21:14.728Z,99586.44
2022-10-12T19:23:41.898Z,99585.19
2022-10-12T19:26:11.611Z,99586.69
2022-10-12T19:28:38.771Z,99584.19
2022-10-12T19:31:16.839Z,99585.06
2022-10-12T19:33:43.727Z,99583.88
2022-10-12T19:36:11.915Z,99585.16
2022-10-12T19:38:39.185Z,99573.94
2022-10-12T19:41:06.349Z,99566.59
2022-10-12T19:43:34.545Z,99571.44
2022-10-12T19:46:06.659Z,99567.78
2022-10-12T19:48:34.513Z,99563.50
2022-10-12T19:51:03.357Z,99561.47
2022-10-12T19:53:31.145Z,99559.66
2022-10-12T19:56:02.021Z,99560.88
2022-10-12T19:58:29.094Z,99573.63
2022-10-12T20:01:03.273Z,99579.22
2022-10-12T20:03:30.258Z,99582.25
2022-10-12T20:05:57.097Z,99592.34
2022-10-12T20:08:23.978Z,99594.16
2022-10-12T20:10:50.943Z,99585.88
2022-10-12T20:13:17.758Z,99582.53
2022-10-12T20:15:44.558Z,99593.91
2022-10-12T20:18:11.591Z,99589.25
2022-10-12T20:20:44.490Z,99598.53
2022-10-12T20:23:11.264Z,99601.41
2022-10-12T20:25:45.726Z,99598.34
2022-10-12T20:28:13.262Z,99591.69
2022-10-12T20:30:41.003Z,99587.75
2022-10-12T20:33:08.347Z,99587.75
2022-10-12T20:35:35.914Z,99576.78
2022-10-12T20:38:03.414Z,99584.63
2022-10-12T20:40:30.092Z,99583.00
2022-10-12T20:42:57.072Z,99577.16
2022-10-12T20:45:23.933Z,99587.31
2022-10-12T20:47:50.686Z,99583.97
2022-10-12T20:50:17.731Z,99570.03
2022-10-12T20:52:44.477Z,99579.56
2022-10-12T20:55:11.623Z,99561.00
2022-10-12T20:57:38.678Z,99559.22
2022-10-12T21:00:06.728Z,99570.06
2022-10-12T21:02:38.353Z,99574.25
2022-10-12T21:05:06.407Z,99571.75
2022-10-12T21:07:33.826Z,99577.44
2022-10-12T21:10:00.663Z,99586.13
2022-10-12T21:12:27.623Z,99585.81
2022-10-12T21:14:55.122Z,99583.03
2022-10-12T21:17:21.894Z,99584.13
2022-10-12T21:19:50.340Z,99573.53
2022-10-12T21:22:17.502Z,99573.16
2022-10-12T21:24:45.053Z,99579.59
2022-10-12T21:27:11.945Z,99589.03
2022-10-12T21:29:38.756Z,99577.69
2022-10-12T21:32:05.739Z,99571.25
2022-10-12T21:34:32.475Z,99566.25
2022-10-12T21:36:59.189Z,99569.56
2022-10-12T21:39:26.152Z,99564.19
2022-10-12T21:41:53.006Z,99568.16
2022-10-12T21:44:19.880Z,99565.28
2022-10-12T21:46:46.740Z,99572.44
2022-10-12T21:49:13.425Z,99576.03
2022-10-12T21:51:40.695Z,99576.97
2022-10-12T21:54:07.686Z,99574.47
2022-10-12T21:56:36.309Z,99570.03
2022-10-12T21:59:04.611Z,99572.06
2022-10-12T22:01:37.062Z,99566.94
2022-10-12T22:04:06.727Z,99571.59
2022-10-12T22:06:34.112Z,99572.75
2022-10-12T22:09:06.058Z,99561.09
2022-10-12T22:11:33.914Z,99568.81
2022-10-12T22:14:03.074Z,99576.78
2022-10-12T22:16:29.975Z,99574.06
2022-10-12T22:18:58.758Z,99569.88
2022-10-12T22:21:25.930Z,99567.66
2022-10-12T22:23:52.897Z,99571.19
2022-10-12T22:26:21.592Z,99561.56
2022-10-12T22:28:48.924Z,99562.16
2022-10-12T22:31:17.701Z,99568.56
2022-10-12T22:33:45.795Z,99567.16
2022-10-12T22:36:13.961Z,99570.97
2022-10-12T22:38:40.880Z,99569.78
2022-10-12T22:41:10.706Z,99561.06
2022-10-12T22:43:38.000Z,99556.19
2022-10-12T22:46:05.234Z,99552.16
2022-10-12T22:48:32.213Z,99544.75
2022-10-12T22:50:59.622Z,99554.50
2022-10-12T22:53:26.735Z,99557.78
2022-10-12T22:56:00.099Z,99559.47
2022-10-12T22:58:27.966Z,99554.63
2022-10-12T23:01:06.353Z,99558.50
2022-10-12T23:03:34.011Z,99540.38
2022-10-12T23:06:00.981Z,99550.19
2022-10-12T23:08:28.725Z,99537.44
2022-10-12T23:10:56.050Z,99546.88
2022-10-12T23:13:22.797Z,99546.41
2022-10-12T23:15:49.586Z,99544.16
2022-10-12T23:18:16.391Z,99538.28
2022-10-12T23:20:43.164Z,99544.34
2022-10-12T23:23:09.837Z,99539.84
2022-10-12T23:25:36.621Z,99530.69
2022-10-12T23:28:03.605Z,99538.78
2022-10-12T23:30:31.545Z,99530.59
2022-10-12T23:32:58.326Z,99526.44
2022-10-12T23:35:25.080Z,99531.09
2022-10-12T23:37:52.427Z,99531.38
2022-10-12T23:40:19.422Z,99524.69
2022-10-12T23:42:46.191Z,99537.59
2022-10-12T23:45:12.960Z,99543.41
2022-10-12T23:47:39.654Z,99544.47
2022-10-12T23:50:06.700Z,99541.03
2022-10-12T23:52:33.451Z,99544.25
2022-10-12T23:55:00.155Z,99541.75
2022-10-12T23:57:46.327Z,99542.59
